Time;durP1;ratioP1;P1;durP2;ratioP2;P2;SDS_P1;SDS_P2;PMS_P1;PMS_P2;Temp;Humidity;BMP_temperature;BMP_pressure;BME280_temperature;BME280_humidity;BME280_pressure;Samples;Min_cycle;Max_cycle;Signal;HPM_P1;HPM_P2
2023/08/21 00:00:59;;;;;;;3.20;3.00;;;21.00;99.90;;;;;;6130369;23;20548;-75
2023/08/21 00:03:25;;;;;;;3.70;3.40;;;21.10;99.90;;;;;;6130362;23;20409;-73
2023/08/21 00:05:51;;;;;;;3.77;3.47;;;21.00;99.90;;;;;;6105153;23;20199;-73
2023/08/21 00:08:16;;;;;;;4.03;3.67;;;21.00;99.90;;;;;;6129556;23;20132;-75
2023/08/21 00:10:42;;;;;;;4.00;3.63;;;20.90;99.90;;;;;;6128693;23;20449;-73
2023/08/21 00:13:07;;;;;;;3.50;3.20;;;20.90;99.90;;;;;;6104483;23;20210;-74
2023/08/21 00:15:33;;;;;;;3.87;3.57;;;20.90;99.90;;;;;;6136283;23;20170;-74
2023/08/21 00:18:00;;;;;;;3.80;3.50;;;20.80;99.90;;;;;;6119406;23;20222;-74
2023/08/21 00:20:26;;;;;;;4.17;3.60;;;20.80;99.90;;;;;;6130023;23;20179;-74
2023/08/21 00:22:52;;;;;;;4.17;3.87;;;20.70;99.90;;;;;;6129869;23;20490;-73
2023/08/21 00:25:18;;;;;;;3.70;3.40;;;20.80;99.90;;;;;;6131308;23;20359;-73
2023/08/21 00:27:43;;;;;;;4.40;4.00;;;20.70;99.90;;;;;;6071002;23;20159;-73
2023/08/21 00:30:10;;;;;;;6.07;5.47;;;20.70;99.90;;;;;;6140781;23;20251;-77
2023/08/21 00:32:36;;;;;;;5.90;5.40;;;20.80;99.90;;;;;;6121018;23;20202;-74
2023/08/21 00:35:03;;;;;;;5.50;5.00;;;20.80;99.90;;;;;;6121307;23;20338;-76
2023/08/21 00:37:29;;;;;;;6.27;5.73;;;20.80;99.90;;;;;;6122115;23;20372;-76
2023/08/21 00:39:55;;;;;;;7.10;5.77;;;20.80;99.90;;;;;;6121509;23;20392;-73
2023/08/21 00:42:20;;;;;;;6.37;5.53;;;20.80;99.90;;;;;;6082105;23;20380;-74
2023/08/21 00:44:46;;;;;;;6.43;5.83;;;20.80;99.90;;;;;;6129064;23;20549;-73
2023/08/21 00:47:12;;;;;;;6.50;5.90;;;20.80;99.90;;;;;;6129474;23;20368;-73
2023/08/21 00:49:39;;;;;;;7.80;7.10;;;20.80;99.90;;;;;;6129023;23;20247;-72
2023/08/21 00:52:08;;;;;;;7.60;6.93;;;20.70;99.90;;;;;;6103566;23;20435;-73
2023/08/21 00:54:34;;;;;;;7.90;6.70;;;20.70;99.90;;;;;;6129360;23;20358;-73
2023/08/21 00:57:01;;;;;;;6.63;5.93;;;20.70;99.90;;;;;;6103389;23;20809;-73
2023/08/21 00:59:26;;;;;;;7.50;6.80;;;20.70;99.90;;;;;;6128992;23;20156;-74
2023/08/21 01:01:52;;;;;;;7.33;6.63;;;20.70;99.90;;;;;;6079423;23;20382;-72
2023/08/21 01:04:17;;;;;;;6.97;6.37;;;20.70;99.90;;;;;;6103741;23;20179;-73
2023/08/21 01:06:43;;;;;;;6.53;5.93;;;20.70;99.90;;;;;;6129666;23;20187;-74
2023/08/21 01:09:25;;;;;;;8.40;7.60;;;20.70;99.90;;;;;;6128924;23;20136;-75
2023/08/21 01:12:07;;;;;;;7.30;6.63;;;20.70;99.90;;;;;;6127558;23;20235;-73
2023/08/21 01:14:48;;;;;;;7.27;6.40;;;20.70;99.90;;;;;;6129128;23;20376;-73
2023/08/21 01:17:17;;;;;;;7.53;6.73;;;20.60;99.90;;;;;;6128043;23;20387;-73
2023/08/21 01:19:49;;;;;;;6.60;6.00;;;20.60;99.90;;;;;;6103250;23;20671;-73
2023/08/21 01:22:14;;;;;;;6.10;5.50;;;20.50;99.90;;;;;;6130213;23;20364;-74
2023/08/21 01:24:40;;;;;;;7.50;6.50;;;20.50;99.90;;;;;;6103290;23;20550;-74
2023/08/21 01:27:06;;;;;;;7.03;6.17;;;20.40;99.90;;;;;;6103689;23;20385;-71
2023/08/21 01:29:33;;;;;;;6.73;6.13;;;20.50;99.90;;;;;;6128707;23;20132;-74
2023/08/21 01:32:22;;;;;;;6.57;6.07;;;20.40;99.90;;;;;;6128993;23;20132;-71
2023/08/21 01:34:50;;;;;;;5.83;5.33;;;20.40;99.90;;;;;;6128814;23;20659;-73
2023/08/21 01:37:17;;;;;;;6.00;5.53;;;20.30;99.90;;;;;;6129608;23;20371;-74
2023/08/21 01:39:43;;;;;;;5.50;5.00;;;20.40;99.90;;;;;;6102891;23;20391;-74
2023/08/21 01:42:08;;;;;;;5.10;4.70;;;20.30;99.90;;;;;;6128218;23;20339;-74
2023/08/21 01:44:34;;;;;;;5.80;5.30;;;20.30;99.90;;;;;;6103497;23;20202;-75
2023/08/21 01:47:01;;;;;;;6.20;5.70;;;20.30;99.90;;;;;;6103691;23;20144;-73
2023/08/21 01:49:27;;;;;;;5.90;5.40;;;20.30;99.90;;;;;;6128233;23;20655;-72
2023/08/21 01:51:52;;;;;;;5.90;5.40;;;20.30;99.90;;;;;;6128409;23;20147;-73
2023/08/21 01:54:18;;;;;;;6.63;6.00;;;20.30;99.90;;;;;;6128770;23;20191;-73
2023/08/21 01:56:43;;;;;;;9.13;7.17;;;20.30;99.90;;;;;;6128630;23;20232;-73
2023/08/21 01:59:09;;;;;;;6.90;5.90;;;20.30;99.90;;;;;;6127264;23;20513;-73
2023/08/21 02:01:35;;;;;;;6.20;5.60;;;20.20;99.90;;;;;;6128215;23;20636;-74
2023/08/21 02:04:00;;;;;;;6.00;5.50;;;20.30;99.90;;;;;;6128613;23;20425;-74
2023/08/21 02:06:26;;;;;;;8.10;6.20;;;20.30;99.90;;;;;;6127431;23;20148;-75
2023/08/21 02:08:52;;;;;;;6.70;6.10;;;20.20;99.90;;;;;;6102750;23;20132;-75
2023/08/21 02:11:17;;;;;;;7.47;6.77;;;20.30;99.90;;;;;;6128161;23;20198;-72
2023/08/21 02:13:43;;;;;;;7.60;6.90;;;20.20;99.90;;;;;;6128712;23;20769;-74
2023/08/21 02:16:09;;;;;;;8.53;6.73;;;20.20;99.90;;;;;;6127149;23;20155;-73
2023/08/21 02:18:35;;;;;;;6.37;5.77;;;20.20;99.90;;;;;;6102369;23;20376;-73
2023/08/21 02:21:01;;;;;;;7.40;6.30;;;20.10;99.90;;;;;;6078984;23;20258;-75
2023/08/21 02:23:28;;;;;;;6.10;5.60;;;20.10;99.90;;;;;;6102598;23;20207;-74
2023/08/21 02:25:54;;;;;;;7.33;6.63;;;20.00;99.90;;;;;;6102629;23;20785;-73
2023/08/21 02:28:20;;;;;;;7.90;6.73;;;20.00;99.90;;;;;;6102805;23;20479;-72
2023/08/21 02:30:47;;;;;;;8.70;6.57;;;19.90;99.90;;;;;;6128666;23;20593;-73
2023/08/21 02:33:13;;;;;;;8.63;7.30;;;19.90;99.90;;;;;;6129369;23;20480;-73
2023/08/21 02:35:39;;;;;;;7.10;6.40;;;19.90;99.90;;;;;;6127950;23;20191;-72
2023/08/21 02:38:04;;;;;;;6.50;5.90;;;19.80;99.90;;;;;;6102611;23;20459;-73
2023/08/21 02:40:34;;;;;;;7.50;5.90;;;19.80;99.90;;;;;;6101985;23;20178;-73
2023/08/21 02:42:59;;;;;;;5.97;5.47;;;19.70;99.90;;;;;;6132102;23;20473;-73
2023/08/21 02:45:25;;;;;;;6.20;5.60;;;19.70;99.90;;;;;;6135496;23;20139;-72
2023/08/21 02:47:51;;;;;;;6.10;5.53;;;19.70;99.90;;;;;;6134355;23;20360;-73
2023/08/21 02:50:16;;;;;;;10.20;8.20;;;19.60;99.90;;;;;;6129498;23;20198;-75
2023/08/21 02:52:42;;;;;;;8.20;7.07;;;19.60;99.90;;;;;;6103429;23;20152;-73
2023/08/21 02:55:08;;;;;;;9.37;7.63;;;19.70;99.90;;;;;;6128575;23;20129;-74
2023/08/21 02:57:34;;;;;;;8.73;7.80;;;19.70;99.90;;;;;;6104248;23;20199;-73
2023/08/21 03:00:00;;;;;;;8.30;6.93;;;19.80;99.90;;;;;;6104587;23;20670;-73
2023/08/21 03:02:25;;;;;;;7.10;6.40;;;19.80;99.90;;;;;;6130007;23;20137;-74
2023/08/21 03:04:51;;;;;;;6.87;6.17;;;19.90;99.90;;;;;;6130642;23;20415;-73
2023/08/21 03:07:18;;;;;;;7.07;6.47;;;20.00;99.90;;;;;;6130252;23;20403;-73
2023/08/21 03:09:45;;;;;;;6.63;6.00;;;20.00;99.90;;;;;;6129838;23;20160;-74
2023/08/21 03:12:11;;;;;;;7.43;6.70;;;20.10;99.90;;;;;;6129602;23;20367;-73
2023/08/21 03:14:36;;;;;;;6.43;5.83;;;20.00;99.90;;;;;;6103747;23;20419;-74
2023/08/21 03:17:02;;;;;;;5.87;5.33;;;20.10;99.90;;;;;;6128960;23;20246;-74
2023/08/21 03:19:28;;;;;;;7.20;6.60;;;20.00;99.90;;;;;;6129595;23;20141;-73
2023/08/21 03:21:54;;;;;;;8.33;6.60;;;20.00;99.90;;;;;;6129888;23;20385;-74
2023/08/21 03:24:20;;;;;;;8.67;6.87;;;20.00;99.90;;;;;;6108086;23;20453;-73
2023/08/21 03:26:47;;;;;;;5.90;5.30;;;20.10;99.90;;;;;;6108382;23;20397;-75
2023/08/21 03:29:13;;;;;;;5.97;5.37;;;20.00;99.90;;;;;;6104013;23;20797;-73
2023/08/21 03:31:39;;;;;;;7.93;5.20;;;20.00;99.90;;;;;;6129338;23;20893;-75
2023/08/21 03:34:05;;;;;;;5.57;5.03;;;19.90;99.90;;;;;;6103758;23;20218;-73
2023/08/21 03:36:31;;;;;;;7.23;5.67;;;19.90;99.90;;;;;;6103296;23;20669;-75
2023/08/21 03:38:59;;;;;;;5.93;5.30;;;19.90;99.90;;;;;;6104065;23;20399;-73
2023/08/21 03:41:25;;;;;;;6.67;5.30;;;19.80;99.90;;;;;;6128947;23;20396;-74
2023/08/21 03:43:50;;;;;;;5.63;5.13;;;19.90;99.90;;;;;;6129260;23;20923;-74
2023/08/21 03:46:16;;;;;;;5.03;4.63;;;19.80;99.90;;;;;;6130321;23;20167;-75
2023/08/21 03:48:42;;;;;;;4.90;4.40;;;19.80;99.90;;;;;;6103844;23;20498;-74
2023/08/21 03:51:07;;;;;;;4.90;4.50;;;19.80;99.90;;;;;;6103047;23;20195;-73
2023/08/21 03:53:33;;;;;;;4.57;4.17;;;19.80;99.90;;;;;;6129033;23;20223;-74
2023/08/21 03:55:59;;;;;;;4.23;3.83;;;19.80;99.90;;;;;;6105642;23;20689;-75
2023/08/21 03:58:26;;;;;;;4.00;3.70;;;19.80;99.90;;;;;;6061545;23;20155;-74
2023/08/21 04:00:55;;;;;;;4.33;4.03;;;19.80;99.90;;;;;;6086504;23;20400;-74
2023/08/21 04:03:21;;;;;;;5.47;4.97;;;19.80;99.90;;;;;;6128413;23;20415;-75
2023/08/21 04:05:47;;;;;;;9.13;5.80;;;19.90;99.90;;;;;;6130392;23;20383;-73
2023/08/21 04:08:13;;;;;;;6.63;4.77;;;19.90;99.90;;;;;;6103569;23;20240;-73
2023/08/21 04:10:39;;;;;;;7.23;5.10;;;20.00;99.90;;;;;;6080020;23;20940;-73
2023/08/21 04:13:04;;;;;;;6.03;5.07;;;20.00;99.90;;;;;;6128812;23;20486;-73
2023/08/21 04:15:30;;;;;;;5.87;5.27;;;20.00;99.90;;;;;;6109705;23;20274;-73
2023/08/21 04:17:56;;;;;;;7.30;5.57;;;19.90;99.90;;;;;;6142013;23;20175;-74
2023/08/21 04:20:21;;;;;;;5.87;5.37;;;19.90;99.90;;;;;;6109004;23;20179;-73
2023/08/21 04:22:47;;;;;;;7.80;7.00;;;19.90;99.90;;;;;;6115658;23;20180;-73
2023/08/21 04:25:13;;;;;;;6.20;5.60;;;19.80;99.90;;;;;;6142049;23;20136;-73
2023/08/21 04:27:39;;;;;;;6.90;6.17;;;19.80;99.90;;;;;;6142463;23;20424;-73
2023/08/21 04:30:05;;;;;;;5.67;5.20;;;19.70;99.90;;;;;;6117388;23;20183;-73
2023/08/21 04:32:31;;;;;;;6.20;5.60;;;19.70;99.90;;;;;;6114136;23;20658;-74
2023/08/21 04:34:57;;;;;;;5.90;5.40;;;19.60;99.90;;;;;;6114553;23;20374;-74
2023/08/21 04:37:23;;;;;;;5.00;4.60;;;19.60;99.90;;;;;;6113955;23;20148;-75
2023/08/21 04:39:53;;;;;;;5.50;5.07;;;19.60;99.90;;;;;;6112079;23;20185;-74
2023/08/21 04:42:20;;;;;;;6.27;5.67;;;19.60;99.90;;;;;;6107220;23;20455;-73
2023/08/21 04:44:45;;;;;;;6.00;4.97;;;19.70;99.90;;;;;;6105997;23;20404;-74
2023/08/21 04:47:28;;;;;;;4.93;4.53;;;19.60;99.90;;;;;;6105024;23;20368;-74
2023/08/21 04:49:57;;;;;;;4.60;4.20;;;19.60;99.90;;;;;;6080949;23;20431;-75
2023/08/21 04:52:23;;;;;;;4.03;3.63;;;19.70;99.90;;;;;;6104837;23;20429;-74
2023/08/21 04:54:50;;;;;;;5.23;4.73;;;19.60;99.90;;;;;;6131319;23;20395;-73
2023/08/21 04:57:17;;;;;;;5.00;4.60;;;19.60;99.90;;;;;;6105083;23;20435;-74
2023/08/21 04:59:43;;;;;;;4.60;4.20;;;19.60;99.90;;;;;;6104730;23;20435;-73
2023/08/21 05:02:09;;;;;;;4.43;4.10;;;19.60;99.90;;;;;;6114874;23;20376;-76
2023/08/21 05:04:37;;;;;;;6.73;6.13;;;19.70;99.90;;;;;;6116268;23;20415;-73
2023/08/21 05:07:05;;;;;;;8.60;7.43;;;19.70;99.90;;;;;;6119072;23;20380;-77
2023/08/21 05:09:51;;;;;;;8.20;7.40;;;19.80;99.90;;;;;;6094666;23;20364;-76
2023/08/21 05:12:20;;;;;;;8.23;6.87;;;19.90;99.90;;;;;;6117711;23;20386;-74
2023/08/21 05:14:45;;;;;;;8.20;6.73;;;19.90;99.90;;;;;;6095073;23;20388;-76
2023/08/21 05:17:12;;;;;;;9.50;6.33;;;20.00;99.90;;;;;;6117446;23;20152;-76
2023/08/21 05:19:40;;;;;;;8.30;6.53;;;20.00;99.90;;;;;;6116884;23;20444;-77
2023/08/21 05:22:06;;;;;;;9.10;7.30;;;20.00;99.90;;;;;;6145734;23;20144;-75
2023/08/21 05:24:33;;;;;;;8.07;7.20;;;20.10;99.90;;;;;;6119416;23;20875;-75
2023/08/21 05:27:04;;;;;;;8.70;7.00;;;20.20;99.90;;;;;;6097331;23;20368;-75
2023/08/21 05:29:36;;;;;;;7.50;6.50;;;20.20;99.90;;;;;;6073288;23;20354;-76
2023/08/21 05:32:02;;;;;;;13.10;7.80;;;20.20;99.90;;;;;;6095637;23;20378;-73
2023/08/21 05:34:28;;;;;;;9.13;7.00;;;20.20;99.90;;;;;;6094684;23;20395;-75
2023/08/21 05:36:57;;;;;;;9.50;6.60;;;20.30;99.90;;;;;;6145174;23;20364;-77
2023/08/21 05:39:23;;;;;;;11.17;7.23;;;20.40;99.90;;;;;;6145306;23;20634;-75
2023/08/21 05:41:50;;;;;;;7.07;6.00;;;20.40;99.90;;;;;;6098262;23;20371;-76
2023/08/21 05:44:17;;;;;;;7.13;6.03;;;20.50;99.90;;;;;;6121614;23;20470;-76
2023/08/21 05:46:44;;;;;;;6.87;5.93;;;20.60;99.90;;;;;;6144991;23;20375;-74
2023/08/21 05:49:09;;;;;;;6.23;5.33;;;20.60;99.90;;;;;;6145913;23;20638;-76
2023/08/21 05:51:35;;;;;;;5.67;5.10;;;20.70;99.90;;;;;;6098017;23;20168;-77
2023/08/21 05:54:01;;;;;;;8.23;6.33;;;20.80;99.90;;;;;;6098112;23;20148;-74
2023/08/21 05:56:27;;;;;;;8.70;6.40;;;20.90;99.90;;;;;;6097032;23;20151;-75
2023/08/21 05:58:53;;;;;;;8.57;6.20;;;21.10;99.90;;;;;;6098790;23;20403;-76
2023/08/21 06:01:19;;;;;;;7.33;6.60;;;21.20;99.90;;;;;;6145716;23;20182;-76
2023/08/21 06:03:45;;;;;;;6.27;5.67;;;21.40;99.90;;;;;;6120314;23;20187;-77
2023/08/21 06:06:17;;;;;;;9.87;7.77;;;21.70;99.90;;;;;;6122425;23;20428;-73
2023/08/21 06:08:44;;;;;;;6.93;6.23;;;22.00;99.90;;;;;;6100986;23;20380;-76
2023/08/21 06:11:10;;;;;;;9.33;7.47;;;22.30;99.90;;;;;;6098367;23;20222;-75
2023/08/21 06:13:36;;;;;;;8.40;7.17;;;22.50;99.90;;;;;;6122263;23;20375;-76
2023/08/21 06:16:03;;;;;;;11.30;7.57;;;22.40;99.90;;;;;;6098188;23;20388;-76
2023/08/21 06:18:31;;;;;;;8.87;7.53;;;22.40;99.90;;;;;;6146399;23;20152;-75
2023/08/21 06:20:59;;;;;;;11.83;7.03;;;22.50;99.90;;;;;;6099523;23;20418;-76
2023/08/21 06:23:26;;;;;;;7.07;6.43;;;22.50;99.90;;;;;;6074267;23;20902;-75
2023/08/21 06:25:54;;;;;;;11.70;7.70;;;22.50;99.90;;;;;;6120932;23;20375;-76
2023/08/21 06:28:22;;;;;;;9.23;7.23;;;22.50;99.90;;;;;;6143849;23;20368;-77
2023/08/21 06:30:56;;;;;;;8.37;7.50;;;22.40;99.90;;;;;;6072139;23;20438;-78
2023/08/21 06:33:24;;;;;;;8.80;7.87;;;22.40;99.90;;;;;;6100066;23;20372;-77
2023/08/21 06:35:49;;;;;;;7.73;7.00;;;22.30;99.90;;;;;;6123374;23;20403;-74
2023/08/21 06:38:19;;;;;;;10.57;7.60;;;22.40;99.90;;;;;;6075905;23;20439;-76
2023/08/21 06:40:48;;;;;;;7.73;6.97;;;22.40;99.90;;;;;;6123250;23;20427;-76
2023/08/21 06:43:14;;;;;;;13.03;9.77;;;22.40;99.90;;;;;;6126500;23;20454;-77
2023/08/21 06:45:45;;;;;;;12.03;8.93;;;22.50;99.90;;;;;;6080439;23;20379;-75
2023/08/21 06:48:13;;;;;;;7.73;6.80;;;22.60;99.90;;;;;;6101000;23;20454;-78
2023/08/21 06:50:52;;;;;;;7.87;7.13;;;22.60;99.90;;;;;;6125403;23;20243;-80
2023/08/21 06:53:21;;;;;;;9.37;7.13;;;22.60;99.90;;;;;;6100563;23;20388;-77
2023/08/21 06:56:02;;;;;;;9.10;7.00;;;22.60;99.90;;;;;;6089764;23;20377;-77
2023/08/21 06:58:28;;;;;;;11.80;7.67;;;22.60;99.90;;;;;;6042285;23;20392;-77
2023/08/21 07:00:55;;;;;;;9.13;6.80;;;22.50;99.90;;;;;;6065640;23;20461;-75
2023/08/21 07:03:22;;;;;;;7.00;6.30;;;22.60;99.90;;;;;;6040950;23;20441;-77
2023/08/21 07:05:56;;;;;;;9.90;7.57;;;22.60;99.90;;;;;;6041812;23;20382;-78
2023/08/21 07:08:23;;;;;;;11.27;7.87;;;22.60;99.90;;;;;;6040893;23;20401;-79
2023/08/21 07:10:53;;;;;;;10.50;7.23;;;22.70;99.90;;;;;;6087662;23;20457;-76
2023/08/21 07:13:19;;;;;;;11.87;9.37;;;22.70;99.90;;;;;;6041534;23;20414;-75
2023/08/21 07:15:51;;;;;;;10.10;8.20;;;22.70;99.90;;;;;;6067625;23;20440;-77
2023/08/21 07:31:00;;;;;;;12.10;8.43;;;22.80;99.90;;;;;;6208928;23;20534;-76
2023/08/21 07:33:55;;;;;;;8.90;7.30;;;22.90;99.90;;;;;;6138472;23;20389;-79
2023/08/21 07:36:43;;;;;;;11.60;9.00;;;23.00;99.90;;;;;;6195659;23;20366;-77
2023/08/21 07:39:23;;;;;;;8.37;7.53;;;23.10;99.90;;;;;;6120904;23;20387;-77
2023/08/21 07:44:40;;;;;;;8.97;8.07;;;23.20;99.90;;;;;;6201176;23;20438;-79
2023/08/21 07:47:08;;;;;;;8.70;7.90;;;23.30;99.90;;;;;;6161010;23;20374;-78
2023/08/21 07:49:39;;;;;;;9.43;8.50;;;23.30;99.90;;;;;;6160709;23;20406;-75
2023/08/21 07:52:05;;;;;;;10.27;9.40;;;23.40;99.90;;;;;;6160627;23;20397;-76
2023/08/21 07:54:36;;;;;;;10.87;9.87;;;23.40;99.90;;;;;;6184266;23;20365;-75
2023/08/21 08:02:37;;;;;;;10.17;9.17;;;23.40;99.90;;;;;;6193059;22;20440;-76
2023/08/21 08:05:07;;;;;;;13.00;9.93;;;23.50;99.90;;;;;;6191255;23;20388;-77
2023/08/21 08:07:35;;;;;;;11.13;9.67;;;23.60;99.90;;;;;;6166876;23;20361;-77
2023/08/21 08:10:32;;;;;;;9.27;8.47;;;23.60;99.90;;;;;;6216382;23;20678;-78
2023/08/21 08:16:46;;;;;;;11.80;7.90;;;23.80;99.90;;;;;;6172587;22;20428;-77
2023/08/21 08:20:18;;;;;;;11.97;10.40;;;23.90;99.90;;;;;;6220187;23;20463;-76
2023/08/21 08:22:56;;;;;;;8.50;7.67;;;24.00;99.90;;;;;;6215097;23;20436;-80
2023/08/21 08:25:23;;;;;;;8.90;8.10;;;24.10;99.90;;;;;;6190987;23;20450;-76
2023/08/21 08:27:55;;;;;;;12.93;11.63;;;24.10;99.90;;;;;;6188478;23;20408;-76
2023/08/21 08:31:02;;;;;;;11.30;10.13;;;24.20;99.90;;;;;;6216438;23;20407;-78
2023/08/21 08:33:30;;;;;;;11.70;9.60;;;24.20;99.90;;;;;;6212420;23;20381;-76
2023/08/21 08:36:08;;;;;;;10.00;9.00;;;24.20;99.90;;;;;;6190600;23;20385;-76
2023/08/21 08:38:39;;;;;;;10.67;9.57;;;24.30;99.90;;;;;;6189252;23;20404;-75
2023/08/21 08:41:14;;;;;;;13.97;11.27;;;24.30;99.90;;;;;;6190043;23;20409;-78
2023/08/21 08:43:44;;;;;;;13.70;12.00;;;24.30;99.90;;;;;;6215765;23;20512;-77
2023/08/21 08:46:11;;;;;;;10.67;9.67;;;24.30;99.90;;;;;;6154810;23;20406;-77
2023/08/21 08:48:39;;;;;;;11.40;10.30;;;24.30;99.90;;;;;;6082187;23;20382;-78
2023/08/21 08:51:06;;;;;;;14.63;13.13;;;24.40;99.90;;;;;;6152640;23;20414;-76
2023/08/21 09:02:00;;;;;;;12.73;11.63;;;24.40;99.90;;;;;;6213650;23;20438;-78
2023/08/21 09:04:46;;;;;;;14.30;12.10;;;24.50;99.90;;;;;;6162400;23;20452;-79
2023/08/21 09:07:19;;;;;;;10.93;9.77;;;24.50;99.90;;;;;;6137212;23;20385;-75
2023/08/21 09:09:53;;;;;;;14.37;12.67;;;24.60;99.90;;;;;;6136515;23;20409;-78
2023/08/21 09:12:21;;;;;;;11.67;9.33;;;24.70;99.90;;;;;;6154406;23;20406;-77
2023/08/21 09:14:54;;;;;;;11.63;10.50;;;24.70;99.90;;;;;;6068027;23;20459;-76
2023/08/21 09:17:40;;;;;;;11.00;10.00;;;24.80;99.90;;;;;;5986653;23;20420;-76
2023/08/21 09:20:08;;;;;;;10.83;9.77;;;24.90;99.90;;;;;;6034140;23;20414;-78
2023/08/21 09:22:35;;;;;;;13.60;11.20;;;25.00;99.70;;;;;;6035312;23;20379;-75
2023/08/21 09:28:15;;;;;;;19.50;13.90;;;25.10;98.30;;;;;;6121405;23;20439;-79
2023/08/21 09:50:49;;;;;;;13.10;11.00;;;25.40;95.30;;;;;;6205467;23;20498;-80
2023/08/21 09:53:30;;;;;;;10.80;9.37;;;25.50;95.00;;;;;;6183929;23;20428;-77
2023/08/21 12:43:52;;;;;;;10.97;8.40;;;27.50;67.60;;;;;;6201649;23;20406;31
2023/08/21 22:47:24;;;;;;;3.40;3.10;;;21.20;99.90;;;;;;5982873;23;4536582;-77
2023/08/21 22:49:50;;;;;;;3.80;3.50;;;21.20;99.90;;;;;;6140726;23;20168;-78
2023/08/21 22:52:23;;;;;;;5.77;3.70;;;21.10;99.90;;;;;;6142480;23;20131;-77
2023/08/21 22:54:52;;;;;;;4.50;3.20;;;21.10;99.90;;;;;;6107522;23;20411;-75
2023/08/21 22:57:20;;;;;;;4.50;3.63;;;21.10;99.90;;;;;;6086215;23;20495;-77
2023/08/21 22:59:46;;;;;;;3.53;2.90;;;21.10;99.90;;;;;;6108083;23;20856;-77
2023/08/21 23:02:12;;;;;;;3.83;3.03;;;21.00;99.90;;;;;;6085136;23;20160;-75
2023/08/21 23:04:37;;;;;;;4.20;3.83;;;21.00;99.90;;;;;;6109825;23;20148;-77
2023/08/21 23:07:03;;;;;;;4.23;3.30;;;21.00;99.90;;;;;;6108861;23;20448;-76
2023/08/21 23:09:28;;;;;;;4.20;3.80;;;21.00;99.90;;;;;;6103929;23;20153;-77
2023/08/21 23:11:54;;;;;;;4.80;3.33;;;21.00;99.90;;;;;;6080852;23;20136;-78
2023/08/21 23:14:20;;;;;;;4.70;4.20;;;20.90;99.90;;;;;;6106174;23;20526;-76
2023/08/21 23:16:45;;;;;;;4.30;3.80;;;21.00;99.90;;;;;;6080972;23;20183;-77
2023/08/21 23:19:16;;;;;;;4.40;4.00;;;21.00;99.90;;;;;;6104226;23;20137;-77
2023/08/21 23:21:42;;;;;;;3.83;2.97;;;21.00;99.90;;;;;;6104522;23;20137;-78
2023/08/21 23:24:07;;;;;;;3.37;3.07;;;20.90;99.90;;;;;;6104717;23;20364;-76
2023/08/21 23:26:33;;;;;;;5.27;3.33;;;20.90;99.90;;;;;;6134220;23;20521;-76
2023/08/21 23:29:03;;;;;;;4.63;3.17;;;21.00;99.90;;;;;;6137377;23;20455;-76
2023/08/21 23:31:29;;;;;;;3.70;2.57;;;20.90;99.90;;;;;;6134368;23;20174;-77
2023/08/21 23:33:55;;;;;;;4.37;3.60;;;20.90;99.90;;;;;;6183587;23;20363;-75
2023/08/21 23:36:22;;;;;;;3.67;3.37;;;20.90;99.90;;;;;;6136754;23;20379;-76
2023/08/21 23:38:48;;;;;;;6.03;3.73;;;20.90;99.90;;;;;;6105195;23;20399;-78
2023/08/21 23:41:16;;;;;;;3.00;2.57;;;20.90;99.90;;;;;;6104860;23;20288;-77
2023/08/21 23:43:42;;;;;;;4.97;3.90;;;20.90;99.90;;;;;;6131503;23;20408;-76
2023/08/21 23:46:07;;;;;;;7.07;4.80;;;20.90;99.90;;;;;;6135785;23;20430;-77
2023/08/21 23:48:33;;;;;;;5.03;3.80;;;20.90;99.90;;;;;;6110799;23;20403;-76
2023/08/21 23:50:58;;;;;;;6.13;4.00;;;20.90;99.90;;;;;;6106823;23;20171;-78
2023/08/21 23:53:24;;;;;;;4.10;3.60;;;20.80;99.90;;;;;;6105173;23;20163;-76
2023/08/21 23:55:50;;;;;;;4.07;2.90;;;20.80;99.90;;;;;;6132148;23;20280;-78
2023/08/21 23:58:15;;;;;;;3.83;3.53;;;20.80;99.90;;;;;;6130753;23;20238;-78
